Time;durP1;ratioP1;P1;durP2;ratioP2;P2;SDS_P1;SDS_P2;PMS_P1;PMS_P2;Temp;Humidity;BMP_temperature;BMP_pressure;BME280_temperature;BME280_humidity;BME280_pressure;Samples;Min_cycle;Max_cycle;Signal;HPM_P1;HPM_P2
2021/06/30 00:00:56;;;;;;;;;16.00;15.00;;;;;26.89;52.49;97883.06;6259840;27;96477;-63
2021/06/30 00:04:16;;;;;;;;;16.00;15.50;;;;;26.92;52.35;97895.41;6236093;27;96778;-63
2021/06/30 00:07:35;;;;;;;;;15.00;15.00;;;;;26.91;52.31;97908.41;6260071;27;96474;-64
2021/06/30 00:10:56;;;;;;;;;18.00;16.80;;;;;26.85;52.61;97918.09;6259727;27;96269;-64
2021/06/30 00:14:15;;;;;;;;;17.00;16.40;;;;;26.92;52.29;97929.38;6259828;27;97006;-63
2021/06/30 00:17:35;;;;;;;;;18.00;17.00;;;;;26.95;52.41;97925.91;6259638;27;96766;-62
2021/06/30 00:20:55;;;;;;;;;17.00;15.00;;;;;26.99;52.55;97934.31;6251229;27;96474;-63
2021/06/30 00:24:15;;;;;;;;;15.00;14.80;;;;;27.01;52.21;97932.00;6343764;27;96539;-62
2021/06/30 00:27:35;;;;;;;;;16.60;15.00;;;;;27.01;52.24;97941.09;6245862;27;96911;-62
2021/06/30 00:30:54;;;;;;;;;17.60;17.00;;;;;26.95;51.92;97931.44;6336181;27;96192;-63
2021/06/30 00:34:14;;;;;;;;;16.60;16.60;;;;;26.89;51.98;97935.59;6259931;27;96194;-63
2021/06/30 00:37:34;;;;;;;;;18.00;17.67;;;;;26.77;51.94;97943.94;6259611;27;96754;-64
2021/06/30 00:40:54;;;;;;;;;17.80;16.80;;;;;26.52;53.19;98120.09;6258137;27;96248;-62
2021/06/30 00:44:16;;;;;;;;;22.40;20.60;;;;;26.46;53.60;98043.25;6257487;27;96648;-62
2021/06/30 00:47:37;;;;;;;;;23.25;22.00;;;;;26.48;53.67;98082.44;6256201;27;97200;-62
2021/06/30 00:50:56;;;;;;;;;23.67;22.67;;;;;26.52;53.90;98073.09;6253019;27;96302;-64
2021/06/30 00:54:19;;;;;;;;;26.40;25.00;;;;;26.58;53.81;98074.50;6258845;27;96513;-62
2021/06/30 00:57:40;;;;;;;;;22.60;21.60;;;;;26.62;53.54;98074.59;6259464;27;96184;-63
2021/06/30 01:01:00;;;;;;;;;23.60;23.40;;;;;26.66;53.62;98070.78;6258128;27;96319;-62
2021/06/30 01:04:20;;;;;;;;;26.40;23.40;;;;;26.69;53.69;98078.38;6259383;27;96936;-62
2021/06/30 01:07:40;;;;;;;;;21.20;20.00;;;;;26.64;54.14;98094.41;6260026;27;96970;-63
2021/06/30 01:11:01;;;;;;;;;22.80;21.20;;;;;26.56;54.67;98096.13;6259111;27;96380;-63
2021/06/30 01:14:30;;;;;;;;;21.60;19.60;;;;;26.57;54.44;98099.72;6225571;28;97173;-63
2021/06/30 01:17:52;;;;;;;;;21.00;20.60;;;;;26.56;54.30;98117.44;6259036;27;97505;-62
2021/06/30 01:21:15;;;;;;;;;16.40;16.00;;;;;26.51;53.70;98120.44;6258312;27;96730;-63
2021/06/30 01:24:36;;;;;;;;;14.00;13.50;;;;;26.36;53.17;98113.63;6259566;27;96651;-62
2021/06/30 01:27:57;;;;;;;;;11.00;9.50;;;;;26.20;51.93;98138.31;6254038;27;96192;-64
2021/06/30 01:31:16;;;;;;;;;8.00;7.00;;;;;26.08;51.15;98134.72;6260339;27;96526;-62
2021/06/30 01:34:36;;;;;;;;;6.00;6.00;;;;;25.98;51.09;98129.63;6280331;27;97064;-65
2021/06/30 01:37:56;;;;;;;;;7.00;6.00;;;;;25.90;50.98;98152.63;6259224;27;96533;-63
2021/06/30 01:41:16;;;;;;;;;4.00;4.00;;;;;25.76;51.27;98153.69;6259553;27;96505;-65
2021/06/30 01:44:36;;;;;;;;;5.00;5.00;;;;;25.67;51.23;98135.59;6259745;27;96742;-66
2021/06/30 01:47:56;;;;;;;;;3.50;3.50;;;;;25.70;51.04;98115.63;6259986;27;96886;-64
2021/06/30 01:51:15;;;;;;;;;5.00;4.00;;;;;25.67;51.30;98127.31;6258651;27;96557;-64
2021/06/30 02:05:02;;;;;;;;;3.00;3.00;;;;;25.46;51.31;98074.91;6259692;27;97102;-65
2021/06/30 02:08:22;;;;;;;;;4.00;4.00;;;;;25.41;51.70;98077.88;6260410;27;96274;-62
2021/06/30 02:11:41;;;;;;;;;3.25;3.00;;;;;25.34;51.54;98067.38;6258663;27;98006;-64
2021/06/30 02:15:01;;;;;;;;;7.00;5.50;;;;;25.38;51.14;98067.47;6260329;27;96465;-63
2021/06/30 02:18:21;;;;;;;;;4.00;3.00;;;;;25.34;51.17;98047.25;6260175;27;96223;-63
2021/06/30 02:21:42;;;;;;;;;3.00;3.00;;;;;25.27;51.43;97969.72;6259745;27;97181;-63
2021/06/30 02:25:02;;;;;;;;;4.00;4.00;;;;;25.34;52.81;97849.41;6260543;27;96482;-64
2021/06/30 02:28:22;;;;;;;;;3.00;2.00;;;;;25.27;51.50;97765.56;6255498;27;96143;-63
2021/06/30 02:31:42;;;;;;;;;2.40;2.40;;;;;25.06;51.99;97790.53;6258520;27;96900;-64
2021/06/30 02:35:02;;;;;;;;;3.00;3.00;;;;;24.68;53.27;97809.25;6258379;27;96245;-64
2021/06/30 02:38:22;;;;;;;;;3.00;2.40;;;;;24.45;54.51;97910.72;6258282;27;96549;-63
2021/06/30 02:41:41;;;;;;;;;3.40;3.00;;;;;24.55;53.98;97891.03;6243895;27;97030;-66
2021/06/30 02:45:01;;;;;;;;;4.00;4.00;;;;;24.62;53.42;97912.56;6260250;27;96598;-66
2021/06/30 02:48:23;;;;;;;;;3.00;2.40;;;;;24.66;53.12;97930.03;6245782;27;96227;-63
2021/06/30 02:51:42;;;;;;;;;5.00;4.00;;;;;24.73;53.06;97924.78;6259913;27;96461;-63
2021/06/30 02:55:03;;;;;;;;;3.00;3.00;;;;;24.68;53.05;97905.72;6259824;27;96660;-65
2021/06/30 02:58:22;;;;;;;;;5.00;5.00;;;;;24.65;53.36;97896.16;6260434;27;96226;-64
2021/06/30 03:01:42;;;;;;;;;2.00;2.00;;;;;24.58;54.05;97909.69;6259663;27;96249;-64
2021/06/30 03:05:01;;;;;;;;;2.00;2.00;;;;;24.41;54.20;97909.78;6228618;27;96192;-64
2021/06/30 03:08:21;;;;;;;;;4.00;3.00;;;;;24.47;54.11;97905.72;6285368;27;96722;-62
2021/06/30 03:11:41;;;;;;;;;3.00;3.00;;;;;24.34;54.20;97904.00;6260581;27;96160;-64
2021/06/30 03:15:01;;;;;;;;;3.20;3.20;;;;;24.28;54.94;97894.34;6260769;27;96150;-65
2021/06/30 03:18:21;;;;;;;;;3.00;3.00;;;;;24.20;55.33;97892.44;6255642;27;96803;-62
2021/06/30 03:21:41;;;;;;;;;3.00;2.00;;;;;24.21;54.99;97894.06;6245075;27;96478;-65
2021/06/30 03:25:00;;;;;;;;;3.00;3.00;;;;;24.17;54.86;97891.19;6260166;27;96477;-63
2021/06/30 03:28:20;;;;;;;;;3.20;3.20;;;;;24.06;55.00;97887.97;6260601;27;96582;-63
2021/06/30 03:31:40;;;;;;;;;3.00;3.00;;;;;23.93;55.49;97880.78;6259730;27;96422;-62
2021/06/30 03:35:00;;;;;;;;;2.60;2.00;;;;;24.13;55.12;97895.72;6239092;27;96346;-63
2021/06/30 03:38:18;;;;;;;;;3.00;3.00;;;;;24.26;54.48;97891.91;6324291;27;1354527;-63
2021/06/30 03:41:38;;;;;;;;;3.00;2.00;;;;;24.43;53.89;97896.50;6246169;27;96251;-64
2021/06/30 03:44:57;;;;;;;;;3.00;3.00;;;;;24.59;53.41;97897.50;6260489;27;96224;-64
2021/06/30 03:48:17;;;;;;;;;3.00;3.00;;;;;24.64;52.83;97897.28;6260543;27;96473;-63
2021/06/30 03:51:37;;;;;;;;;2.00;2.00;;;;;24.76;53.18;97911.13;6245908;27;96513;-63
2021/06/30 03:54:57;;;;;;;;;3.60;3.00;;;;;24.87;53.13;97917.88;6260356;27;96315;-64
2021/06/30 03:58:16;;;;;;;;;5.00;4.00;;;;;24.98;53.74;97927.34;6260439;27;97036;-63
2021/06/30 04:01:36;;;;;;;;;4.00;4.00;;;;;25.07;53.04;97948.53;6259677;27;96697;-62
2021/06/30 04:04:56;;;;;;;;;5.00;5.00;;;;;25.18;52.71;97944.97;6251920;27;96225;-65
2021/06/30 04:08:16;;;;;;;;;5.00;5.00;;;;;25.46;52.34;97964.50;6341302;27;96150;-62
2021/06/30 04:50:30;;;;;;;;;5.20;5.00;;;;;27.53;47.91;98081.38;7304534;23;98427;-62
2021/06/30 04:53:51;;;;;;;;;5.00;4.40;;;;;27.63;47.78;98080.06;6236077;27;96556;-63
2021/06/30 04:57:11;;;;;;;;;5.00;5.00;;;;;27.72;47.22;98091.78;6232064;28;96465;-64
2021/06/30 05:00:31;;;;;;;;;4.00;4.00;;;;;27.82;46.87;98094.84;6253992;27;96216;-63
2021/06/30 05:03:51;;;;;;;;;5.20;5.20;;;;;27.92;47.24;98088.78;6234262;27;96352;-63
2021/06/30 05:07:11;;;;;;;;;5.00;4.00;;;;;27.98;46.83;98094.88;6333338;27;96505;-63
2021/06/30 05:10:31;;;;;;;;;5.60;5.60;;;;;28.08;47.13;98090.78;6258727;27;97806;-63
2021/06/30 05:13:50;;;;;;;;;6.00;5.00;;;;;28.19;46.48;98091.91;6249896;27;96242;-63
2021/06/30 05:17:10;;;;;;;;;6.00;5.00;;;;;28.25;45.88;98105.13;6254161;27;96648;-62
2021/06/30 05:20:30;;;;;;;;;6.00;6.00;;;;;28.30;46.31;98120.69;6251850;27;96557;-64
2021/06/30 05:23:51;;;;;;;;;6.00;5.00;;;;;28.24;46.07;98117.41;6323094;27;96452;-64
2021/06/30 05:27:11;;;;;;;;;7.00;6.00;;;;;28.31;46.34;98120.34;6247097;27;96111;-63
2021/06/30 05:30:31;;;;;;;;;5.00;5.00;;;;;28.40;46.57;98125.69;6257396;27;96424;-63
2021/06/30 05:33:51;;;;;;;;;5.00;5.00;;;;;28.42;46.37;98129.75;6335855;27;96487;-64
2021/06/30 05:37:11;;;;;;;;;4.80;4.00;;;;;28.39;46.52;98130.44;6327575;27;96307;-64
2021/06/30 05:40:26;;;;;;;;;5.00;4.00;;;;;28.27;46.22;98138.84;6258202;27;96441;-62
2021/06/30 05:43:45;;;;;;;;;5.00;5.00;;;;;28.09;46.49;98145.84;6259508;27;96917;-62
2021/06/30 05:47:17;;;;;;;;;4.00;4.00;;;;;27.97;46.35;98132.88;6336615;27;96204;-64
2021/06/30 05:50:38;;;;;;;;;5.00;4.00;;;;;27.92;46.42;98143.38;6240524;27;96950;-62
2021/06/30 05:53:58;;;;;;;;;6.00;5.00;;;;;27.84;46.67;98147.13;6245393;27;96633;-63
2021/06/30 05:57:18;;;;;;;;;6.00;6.00;;;;;27.94;46.65;98135.53;6327744;27;96916;-64
2021/06/30 06:00:33;;;;;;;;;6.60;6.00;;;;;28.13;46.61;98135.69;6329851;27;96512;-63
2021/06/30 06:03:53;;;;;;;;;5.50;5.00;;;;;28.27;46.50;98135.28;6279895;27;96416;-62
2021/06/30 06:07:12;;;;;;;;;7.00;6.00;;;;;28.24;45.85;98139.56;6254047;27;96495;-63
2021/06/30 06:10:33;;;;;;;;;5.75;5.00;;;;;28.26;45.70;98136.44;6254754;27;96498;-61
2021/06/30 06:13:48;;;;;;;;;6.50;6.00;;;;;28.43;45.85;98133.31;6280589;27;97247;-62
2021/06/30 06:17:09;;;;;;;;;5.60;5.60;;;;;28.51;45.24;98132.34;6334225;27;96611;-62
2021/06/30 06:20:28;;;;;;;;;6.00;5.00;;;;;28.57;44.76;98124.56;6310865;27;96315;-64
2021/06/30 06:23:48;;;;;;;;;6.00;6.00;;;;;28.54;44.70;98119.72;6331034;27;96636;-62
2021/06/30 06:27:08;;;;;;;;;6.40;6.00;;;;;28.47;44.80;98116.78;6331243;27;96352;-64
2021/06/30 06:30:29;;;;;;;;;5.00;5.00;;;;;28.66;44.63;98112.13;6255373;27;96908;-61
2021/06/30 06:33:49;;;;;;;;;4.00;4.00;;;;;28.78;44.70;98119.56;6255072;27;96266;-62
2021/06/30 06:37:12;;;;;;;;;4.00;4.00;;;;;28.72;44.74;98101.59;6285658;27;96816;-65
2021/06/30 06:40:32;;;;;;;;;4.00;4.00;;;;;28.99;43.50;98119.25;6278838;27;96463;-61
2021/06/30 06:43:52;;;;;;;;;6.00;5.00;;;;;28.84;42.92;98132.78;6256054;27;97185;-62
2021/06/30 06:47:12;;;;;;;;;5.00;4.00;;;;;28.82;43.81;98139.88;6255675;27;96452;-63
2021/06/30 06:50:32;;;;;;;;;4.60;4.00;;;;;28.67;43.97;98133.16;6251825;27;97013;-63
2021/06/30 06:53:53;;;;;;;;;4.00;4.00;;;;;28.61;44.07;98131.78;6280270;27;96311;-61
2021/06/30 06:57:13;;;;;;;;;4.00;4.00;;;;;28.61;43.85;98140.13;6331542;27;97010;-62
2021/06/30 07:00:33;;;;;;;;;5.00;5.00;;;;;28.52;43.83;98142.28;6245057;27;96392;-61
2021/06/30 07:03:48;;;;;;;;;5.00;5.00;;;;;28.52;43.55;98125.63;6252620;27;96880;-62
2021/06/30 07:07:07;;;;;;;;;5.00;5.00;;;;;28.50;43.58;98135.47;6328147;27;96786;-62
2021/06/30 07:10:27;;;;;;;;;5.00;5.00;;;;;28.54;43.66;98128.06;6242214;27;96830;-63
2021/06/30 07:13:59;;;;;;;;;4.40;4.40;;;;;28.52;42.89;98127.59;6330841;27;96432;-62
2021/06/30 07:17:14;;;;;;;;;7.00;6.00;;;;;28.45;43.45;98142.06;6255951;27;96865;-63
2021/06/30 07:20:34;;;;;;;;;6.00;4.40;;;;;28.40;43.46;98128.47;6253758;27;96849;-63
2021/06/30 07:23:53;;;;;;;;;5.00;5.00;;;;;28.47;43.41;98125.09;6256220;27;96394;-64
2021/06/30 07:27:13;;;;;;;;;5.00;5.00;;;;;28.42;43.46;98124.19;6329412;27;96757;-62
2021/06/30 07:30:33;;;;;;;;;5.00;4.00;;;;;28.55;43.04;98127.69;6251714;27;96432;-64
2021/06/30 07:33:53;;;;;;;;;3.00;3.00;;;;;28.70;42.65;98123.28;6258784;27;96485;-64
2021/06/30 07:37:13;;;;;;;;;4.00;4.00;;;;;28.82;42.13;98126.00;6284129;27;96350;-61
2021/06/30 07:40:33;;;;;;;;;4.00;3.50;;;;;28.90;41.80;98124.19;6284700;27;96421;-62
2021/06/30 07:43:52;;;;;;;;;3.00;3.00;;;;;29.16;41.50;98128.00;6259885;27;96545;-61
2021/06/30 07:47:10;;;;;;;;;4.00;3.00;;;;;29.34;40.33;98119.28;6336649;27;96781;-64
2021/06/30 07:50:26;;;;;;;;;4.00;4.00;;;;;29.38;40.69;98123.75;6335909;27;96601;-62
2021/06/30 07:53:42;;;;;;;;;3.00;3.00;;;;;29.59;40.07;98120.63;6336793;27;96254;-64
2021/06/30 07:56:58;;;;;;;;;5.00;4.00;;;;;29.71;39.98;98121.25;6253577;27;96719;-64
2021/06/30 08:00:14;;;;;;;;;4.60;4.40;;;;;29.82;39.83;98115.13;6255056;27;96188;-63
2021/06/30 08:03:28;;;;;;;;;3.00;3.00;;;;;29.68;40.09;98124.78;6259816;27;96553;-61
2021/06/30 08:06:43;;;;;;;;;4.25;4.00;;;;;29.60;39.74;98123.03;6336479;27;96512;-65
2021/06/30 08:09:58;;;;;;;;;1.00;1.00;;;;;29.71;39.10;98112.94;6337253;27;97033;-63
2021/06/30 08:13:13;;;;;;;;;2.80;2.80;;;;;29.93;40.09;98114.19;6373773;27;96301;-60
2021/06/30 08:16:30;;;;;;;;;3.20;3.20;;;;;29.97;39.60;98117.03;6253260;27;96244;-62
2021/06/30 08:19:45;;;;;;;;;6.00;4.00;;;;;30.13;39.36;98114.97;6253215;27;96856;-64
2021/06/30 08:23:00;;;;;;;;;4.00;4.00;;;;;30.37;39.13;98124.94;6229435;28;96354;-62
2021/06/30 08:26:15;;;;;;;;;3.00;2.00;;;;;30.45;39.51;98121.91;6260299;27;96396;-63
2021/06/30 08:29:30;;;;;;;;;5.00;4.00;;;;;30.34;38.57;98117.34;6246704;27;97698;-63
2021/06/30 08:32:46;;;;;;;;;5.00;4.00;;;;;30.43;38.33;98126.22;6304632;27;97520;-64
2021/06/30 08:36:00;;;;;;;;;3.00;2.75;;;;;30.22;38.63;98114.72;6213229;27;96976;-62
2021/06/30 08:39:15;;;;;;;;;3.80;3.00;;;;;30.22;38.61;98109.97;6235610;27;96647;-62
2021/06/30 08:42:37;;;;;;;;;3.00;3.00;;;;;30.54;38.75;98110.56;6256895;27;96655;-64
2021/06/30 08:45:53;;;;;;;;;3.80;3.80;;;;;30.66;38.82;98115.13;6229193;27;96521;-62
2021/06/30 08:49:09;;;;;;;;;3.00;3.00;;;;;30.78;38.74;98107.38;6244815;27;96860;-62
2021/06/30 08:52:23;;;;;;;;;3.60;3.00;;;;;30.94;38.50;98110.81;6217829;27;96319;-61
2021/06/30 08:55:39;;;;;;;;;2.00;2.00;;;;;30.97;38.27;98110.06;6229687;27;97714;-62
2021/06/30 08:58:55;;;;;;;;;3.50;3.50;;;;;31.05;37.34;98088.72;6241584;27;96409;-63
2021/06/30 09:02:10;;;;;;;;;4.20;3.20;;;;;31.20;37.94;98104.47;6305427;27;96908;-62
2021/06/30 09:09:07;;;;;;;;;5.00;4.00;;;;;31.30;37.50;98103.81;6316826;27;96985;-63
2021/06/30 09:15:57;;;;;;;;;4.00;4.00;;;;;31.27;36.95;98112.94;6235947;27;96547;-61
2021/06/30 09:19:12;;;;;;;;;4.00;3.00;;;;;31.17;36.71;98108.00;6231433;27;96565;-63
2021/06/30 09:22:29;;;;;;;;;5.40;5.00;;;;;31.39;37.60;98112.69;6304057;27;96327;-63
2021/06/30 09:25:45;;;;;;;;;4.00;4.00;;;;;31.45;36.82;98109.56;6236293;27;96838;-65
2021/06/30 09:29:05;;;;;;;;;5.00;3.75;;;;;31.52;36.82;98118.81;6250658;27;96339;-63
2021/06/30 09:32:19;;;;;;;;;4.00;4.00;;;;;31.56;36.66;98113.28;6255331;27;96450;-62
2021/06/30 09:35:36;;;;;;;;;4.00;4.00;;;;;31.69;36.49;98112.69;6255667;27;96927;-62
2021/06/30 09:38:51;;;;;;;;;4.60;4.00;;;;;31.88;36.32;98102.56;6251721;27;96474;-63
2021/06/30 09:42:07;;;;;;;;;4.00;4.00;;;;;31.65;36.14;98044.16;6273041;27;96329;-63
2021/06/30 09:45:22;;;;;;;;;4.00;4.00;;;;;32.00;35.40;98088.34;6256166;27;96914;-61
2021/06/30 09:48:38;;;;;;;;;5.00;5.00;;;;;32.23;35.60;98114.13;6255940;27;96735;-62
2021/06/30 09:51:43;;;;;;;;;4.00;4.00;;;;;32.38;35.31;98103.91;6228834;28;96581;-63
2021/06/30 09:54:58;;;;;;;;;5.00;4.00;;;;;32.16;34.47;98108.44;6252093;27;96753;-64
2021/06/30 09:58:30;;;;;;;;;4.40;4.40;;;;;32.40;35.06;98116.25;6278178;27;96392;-63
2021/06/30 10:01:54;;;;;;;;;4.00;4.00;;;;;32.48;35.01;98117.16;6253381;27;96522;-63
2021/06/30 10:05:11;;;;;;;;;4.40;4.40;;;;;32.63;34.21;98121.66;6268820;27;96616;-61
2021/06/30 10:08:39;;;;;;;;;3.20;3.00;;;;;32.79;34.09;98108.28;6283174;27;96885;-62
2021/06/30 10:12:05;;;;;;;;;4.00;4.00;;;;;32.78;34.25;98106.69;6245114;27;96873;-63
2021/06/30 10:15:21;;;;;;;;;4.00;4.00;;;;;32.96;33.38;98110.38;6246389;27;96455;-62
2021/06/30 10:18:35;;;;;;;;;4.00;4.00;;;;;33.03;34.00;98120.81;6256076;27;96532;-62
2021/06/30 10:21:51;;;;;;;;;2.20;2.20;;;;;33.19;33.63;98115.75;6247748;27;96990;-62
2021/06/30 10:25:06;;;;;;;;;4.00;3.00;;;;;33.26;33.57;98109.41;6332976;27;1374337;-63
2021/06/30 10:28:21;;;;;;;;;3.80;3.00;;;;;33.27;33.50;98114.63;6256356;27;96418;-63
2021/06/30 10:31:37;;;;;;;;;3.00;3.00;;;;;33.28;32.84;98096.63;6253955;27;96827;-63
2021/06/30 10:34:55;;;;;;;;;4.00;3.40;;;;;33.36;32.98;98098.28;6259641;27;96442;-62
2021/06/30 10:38:10;;;;;;;;;3.00;3.00;;;;;33.39;32.55;98105.06;6284944;27;96281;-61
2021/06/30 10:41:38;;;;;;;;;5.00;4.00;;;;;33.51;32.65;98094.38;6325637;27;97126;-65
2021/06/30 10:44:55;;;;;;;;;3.00;3.00;;;;;33.58;32.57;98096.38;6250768;27;96278;-61
2021/06/30 10:48:13;;;;;;;;;2.00;2.00;;;;;33.69;32.89;98100.06;6247556;27;96371;-62
2021/06/30 10:51:42;;;;;;;;;4.00;4.00;;;;;33.46;32.34;98089.16;6255014;27;96281;-63
2021/06/30 10:54:57;;;;;;;;;3.00;3.00;;;;;33.66;32.67;98091.63;6252203;27;96501;-62
2021/06/30 10:58:21;;;;;;;;;2.40;2.40;;;;;33.60;32.56;98096.00;6233695;27;96413;-62
2021/06/30 11:01:37;;;;;;;;;3.00;3.00;;;;;33.74;32.56;98082.09;6253408;27;96814;-62
2021/06/30 11:04:52;;;;;;;;;3.50;3.50;;;;;33.92;32.56;98097.72;6231726;27;96580;-60
2021/06/30 11:08:37;;;;;;;;;4.00;4.00;;;;;34.08;31.97;98086.19;6253051;27;96803;-63
2021/06/30 11:11:59;;;;;;;;;4.00;4.00;;;;;34.20;32.10;98090.66;6250974;27;96963;-61
2021/06/30 11:15:39;;;;;;;;;4.00;4.00;;;;;34.38;31.85;98077.47;6255610;27;96453;-62
2021/06/30 11:18:54;;;;;;;;;4.00;4.00;;;;;34.43;31.20;98087.47;6329232;27;96624;-62
2021/06/30 11:22:23;;;;;;;;;4.00;3.80;;;;;34.32;31.54;98074.28;6249937;27;96579;-61
2021/06/30 11:25:37;;;;;;;;;3.80;3.80;;;;;34.28;31.96;98079.06;6250257;27;96423;-61
2021/06/30 11:28:52;;;;;;;;;4.60;4.60;;;;;34.39;32.35;98090.28;6254103;27;96968;-62
2021/06/30 11:32:07;;;;;;;;;4.00;4.00;;;;;34.58;31.67;98077.88;6239461;27;96426;-60
2021/06/30 11:35:28;;;;;;;;;6.00;6.00;;;;;34.74;30.78;98076.31;6237737;27;97240;-62
2021/06/30 11:38:44;;;;;;;;;4.00;4.00;;;;;34.78;31.39;98074.31;6242906;27;96575;-63
2021/06/30 11:42:00;;;;;;;;;4.00;3.20;;;;;34.82;31.15;98068.69;6249377;27;97439;-61
2021/06/30 11:45:20;;;;;;;;;4.25;4.00;;;;;34.91;31.28;98066.28;6252722;27;96373;-63
2021/06/30 11:48:37;;;;;;;;;6.00;5.00;;;;;34.93;31.71;98065.88;6254123;27;96481;-64
2021/06/30 11:51:58;;;;;;;;;4.20;4.20;;;;;34.87;31.29;98048.69;6321522;27;96560;-64
2021/06/30 11:55:13;;;;;;;;;5.50;5.50;;;;;34.84;31.30;98040.28;6249343;27;96376;-62
2021/06/30 11:58:46;;;;;;;;;6.00;5.40;;;;;34.83;31.39;98042.28;6242517;27;97169;-63
2021/06/30 12:02:00;;;;;;;;;5.00;5.00;;;;;34.70;31.05;98032.69;6319528;27;97599;-63
2021/06/30 12:05:18;;;;;;;;;6.00;6.00;;;;;34.71;31.54;98031.50;6249065;27;96680;-62
2021/06/30 12:08:32;;;;;;;;;6.00;5.75;;;;;34.81;31.25;98033.47;6322192;27;97883;-63
2021/06/30 12:11:50;;;;;;;;;5.00;5.00;;;;;34.81;31.65;98030.69;6243973;27;96688;-62
2021/06/30 12:15:06;;;;;;;;;5.40;5.00;;;;;34.81;31.17;98025.09;6254663;27;96930;-63
2021/06/30 12:18:24;;;;;;;;;4.00;4.00;;;;;34.91;31.92;98021.47;6273903;27;97635;-61
2021/06/30 12:21:41;;;;;;;;;5.60;5.00;;;;;35.04;32.00;98025.41;6267920;27;96606;-60
2021/06/30 12:24:57;;;;;;;;;6.00;6.00;;;;;35.07;31.11;98021.03;6243326;27;96342;-66
2021/06/30 12:28:12;;;;;;;;;5.25;5.25;;;;;35.19;31.56;98017.81;6241667;27;96696;-65
2021/06/30 12:31:27;;;;;;;;;7.00;7.00;;;;;35.29;31.33;98014.16;6247564;27;96921;-64
2021/06/30 12:34:44;;;;;;;;;5.00;5.00;;;;;35.35;30.89;98009.72;6249558;27;96556;-65
2021/06/30 12:38:00;;;;;;;;;5.50;5.50;;;;;35.11;30.87;98019.00;6370333;27;96313;-66
2021/06/30 12:41:32;;;;;;;;;5.60;5.00;;;;;34.92;30.91;98016.66;6250836;27;97037;-64
2021/06/30 12:44:57;;;;;;;;;4.00;4.00;;;;;34.86;31.38;98021.88;6230283;27;96384;-65
2021/06/30 12:48:16;;;;;;;;;5.00;5.00;;;;;34.86;31.18;98007.88;6248532;27;97002;-65
2021/06/30 12:51:32;;;;;;;;;5.00;5.00;;;;;34.86;31.22;98012.66;6243364;27;96581;-66
2021/06/30 12:55:12;;;;;;;;;4.00;4.00;;;;;34.61;30.84;98009.88;6303403;27;96882;-64
2021/06/30 12:58:40;;;;;;;;;5.00;5.00;;;;;34.57;31.48;98009.09;6231364;27;96520;-65
2021/06/30 13:01:54;;;;;;;;;6.00;6.00;;;;;34.65;31.45;97996.69;6277939;27;1353831;-65
2021/06/30 13:05:23;;;;;;;;;4.60;4.20;;;;;34.69;31.21;98000.31;6331585;27;96320;-65
2021/06/30 13:08:40;;;;;;;;;4.40;4.00;;;;;34.92;31.85;97995.06;6257332;27;96763;-66
2021/06/30 13:11:57;;;;;;;;;5.00;5.00;;;;;34.80;30.00;97995.47;6333978;27;96858;-64
2021/06/30 13:15:23;;;;;;;;;4.00;4.00;;;;;34.81;30.16;97988.69;6274871;27;96443;-65
2021/06/30 13:18:50;;;;;;;;;4.00;3.00;;;;;34.85;30.00;97997.88;6334259;27;96826;-64
2021/06/30 13:22:15;;;;;;;;;4.00;3.80;;;;;34.95;29.73;98008.25;6329318;27;97284;-65
2021/06/30 13:25:41;;;;;;;;;4.00;3.00;;;;;34.82;29.61;97997.88;6256992;27;96466;-65
2021/06/30 13:29:33;;;;;;;;;3.00;3.00;;;;;34.70;30.28;97987.91;6244319;27;96260;-64
2021/06/30 13:36:30;;;;;;;;;2.00;2.00;;;;;34.73;30.08;97993.50;6331447;27;96705;-65
2021/06/30 13:39:45;;;;;;;;;6.00;5.00;;;;;34.64;30.30;97993.09;6328906;27;96885;-65
2021/06/30 13:43:03;;;;;;;;;4.00;4.00;;;;;34.70;30.50;97985.09;6248794;27;96801;-65
2021/06/30 13:46:22;;;;;;;;;4.00;4.00;;;;;34.66;30.44;97981.47;6248754;27;97165;-65
2021/06/30 13:49:36;;;;;;;;;4.40;3.40;;;;;34.82;30.24;98000.69;6268604;27;98125;-65
2021/06/30 13:52:51;;;;;;;;;4.00;3.40;;;;;34.78;29.67;98009.09;6302939;27;97230;-64
2021/06/30 13:56:10;;;;;;;;;4.00;4.00;;;;;34.94;29.54;98005.88;6267373;27;96432;-65
2021/06/30 13:59:26;;;;;;;;;4.00;4.00;;;;;35.02;29.48;98025.03;6251090;27;96462;-65
2021/06/30 14:02:41;;;;;;;;;4.50;4.00;;;;;34.96;29.97;98029.44;6264882;27;96979;-64
2021/06/30 14:05:57;;;;;;;;;4.60;4.60;;;;;34.99;30.50;98044.66;6242899;27;96284;-66
2021/06/30 14:09:11;;;;;;;;;5.00;4.00;;;;;34.98;30.56;98041.06;6256127;27;96408;-65
2021/06/30 14:12:26;;;;;;;;;4.75;4.75;;;;;34.95;30.63;98041.06;6251170;27;96574;-65
2021/06/30 14:15:42;;;;;;;;;5.80;5.20;;;;;34.94;30.10;98048.69;6254395;27;96241;-63
2021/06/30 14:18:58;;;;;;;;;4.00;4.00;;;;;34.97;29.84;98049.88;6307215;27;96990;-63
2021/06/30 14:22:25;;;;;;;;;5.67;5.00;;;;;34.92;30.22;98058.69;6243938;27;96855;-63
2021/06/30 14:25:42;;;;;;;;;5.00;4.00;;;;;34.86;29.80;98060.28;6246720;27;96262;-62
2021/06/30 14:29:01;;;;;;;;;4.80;4.00;;;;;34.87;28.76;98059.09;6256317;27;96055;-63
2021/06/30 14:32:15;;;;;;;;;4.00;4.00;;;;;34.80;29.29;98065.47;6237345;27;96453;-63
2021/06/30 14:35:30;;;;;;;;;5.00;5.00;;;;;34.84;29.48;98066.31;6329452;27;96286;-63
2021/06/30 14:38:45;;;;;;;;;5.00;4.00;;;;;34.83;29.17;98063.91;6254583;27;96492;-63
2021/06/30 14:42:00;;;;;;;;;4.20;4.20;;;;;34.44;29.87;98053.50;6332939;27;96694;-62
2021/06/30 14:45:18;;;;;;;;;4.20;4.20;;;;;34.25;30.03;98063.09;6252859;27;96481;-63
2021/06/30 14:48:33;;;;;;;;;5.00;4.75;;;;;33.99;29.92;98063.41;6329605;27;96867;-63
2021/06/30 14:51:49;;;;;;;;;4.00;3.20;;;;;33.92;30.21;98050.19;6336268;27;96397;-62
2021/06/30 14:55:05;;;;;;;;;5.00;5.00;;;;;33.89;30.23;98056.59;6253918;27;96257;-63
2021/06/30 14:58:23;;;;;;;;;4.60;4.60;;;;;33.82;30.06;98059.34;6257315;27;96544;-62
2021/06/30 15:01:43;;;;;;;;;5.00;4.50;;;;;33.80;30.25;98058.16;6256331;27;96033;-63
2021/06/30 15:04:58;;;;;;;;;5.00;5.00;;;;;33.80;30.45;98049.78;6256210;27;96521;-63
2021/06/30 15:08:20;;;;;;;;;6.00;4.80;;;;;33.77;30.32;98053.38;6257695;27;96525;-62
2021/06/30 15:11:36;;;;;;;;;5.00;5.00;;;;;33.73;30.55;98042.16;6321516;27;1357527;-63
2021/06/30 15:14:51;;;;;;;;;5.00;5.00;;;;;33.80;30.75;98044.19;6229325;27;96231;-62
2021/06/30 15:18:07;;;;;;;;;6.00;6.00;;;;;33.71;31.21;98044.56;6277299;27;96265;-62
2021/06/30 15:21:24;;;;;;;;;6.00;5.00;;;;;33.64;31.69;98050.09;6267685;27;96802;-63
2021/06/30 15:24:39;;;;;;;;;5.00;5.00;;;;;33.53;31.80;98048.47;6333499;27;96363;-63
2021/06/30 15:27:54;;;;;;;;;5.75;5.75;;;;;33.46;31.84;98049.25;6245406;27;96510;-63
2021/06/30 15:31:10;;;;;;;;;5.00;5.00;;;;;33.43;31.67;98044.41;6279311;27;96834;-62
2021/06/30 15:34:25;;;;;;;;;4.00;4.00;;;;;33.48;31.59;98035.66;6250547;27;96440;-62
2021/06/30 15:37:40;;;;;;;;;5.00;5.00;;;;;33.32;31.61;98036.03;6238156;27;96653;-62
2021/06/30 15:40:54;;;;;;;;;5.00;5.00;;;;;33.27;32.14;98036.38;6251413;27;96896;-62
2021/06/30 15:44:10;;;;;;;;;6.00;5.00;;;;;33.27;32.07;98028.00;6250147;27;96220;-62
2021/06/30 15:47:25;;;;;;;;;5.00;5.00;;;;;33.37;32.14;98015.28;6281418;27;96371;-63
2021/06/30 15:50:40;;;;;;;;;6.00;5.00;;;;;33.25;32.35;98005.25;6327683;27;97057;-63
2021/06/30 15:53:54;;;;;;;;;6.00;6.00;;;;;33.40;31.55;98026.47;6251204;27;96426;-63
2021/06/30 15:57:11;;;;;;;;;5.00;5.00;;;;;33.34;31.68;98018.84;6251122;27;96130;-64
2021/06/30 16:00:27;;;;;;;;;5.00;5.00;;;;;33.12;32.57;98026.31;6253529;27;96278;-63
2021/06/30 16:03:46;;;;;;;;;6.00;6.00;;;;;33.09;32.24;98018.69;6355707;27;95993;-64
2021/06/30 16:07:01;;;;;;;;;7.00;7.00;;;;;33.09;31.96;98015.91;6241620;27;96789;-63
2021/06/30 16:10:16;;;;;;;;;6.00;6.00;;;;;33.12;32.36;98026.31;6252452;27;96852;-62
2021/06/30 16:13:33;;;;;;;;;8.00;7.25;;;;;32.80;32.01;98002.97;6250906;27;96622;-65
2021/06/30 16:16:47;;;;;;;;;7.00;7.00;;;;;32.70;32.08;98026.03;6258886;27;96862;-64
2021/06/30 16:20:04;;;;;;;;;6.00;6.00;;;;;32.66;32.55;98014.84;6249632;27;96558;-67
2021/06/30 16:23:19;;;;;;;;;6.00;5.40;;;;;32.56;33.03;98019.16;6275361;27;96415;-63
2021/06/30 16:26:34;;;;;;;;;7.00;7.00;;;;;32.67;32.07;98020.06;6251665;27;96866;-64
2021/06/30 16:29:49;;;;;;;;;7.00;6.00;;;;;32.70;31.49;98026.84;6248121;27;96395;-64
2021/06/30 16:33:04;;;;;;;;;4.80;4.80;;;;;32.66;31.17;98020.44;6260895;27;96759;-63